METAR Data
IDs: Format: Raw Decoded Include TAF

Data at: 0639 UTC 18 Sep 2021

KCBF 180635Z AUTO 10005KT 10SM CLR 15/08 A3017 RMK AO2